sensor_id;sensor_type;location;lat;lon;timestamp;P1;durP1;ratioP1;P2;durP2;ratioP2
57627;SDS011;43451;49.060;10.616;2024-01-06T00:00:32;12.63;;;7.80;;
57627;SDS011;43451;49.060;10.616;2024-01-06T00:05:23;11.95;;;7.55;;
57627;SDS011;43451;49.060;10.616;2024-01-06T00:07:51;12.35;;;7.88;;
57627;SDS011;43451;49.060;10.616;2024-01-06T00:10:17;13.77;;;8.20;;
57627;SDS011;43451;49.060;10.616;2024-01-06T00:12:43;12.73;;;7.70;;
57627;SDS011;43451;49.060;10.616;2024-01-06T00:15:09;15.65;;;8.50;;
57627;SDS011;43451;49.060;10.616;2024-01-06T00:17:35;12.07;;;8.18;;
57627;SDS011;43451;49.060;10.616;2024-01-06T00:20:04;12.40;;;7.93;;
57627;SDS011;43451;49.060;10.616;2024-01-06T00:22:30;13.38;;;8.02;;
57627;SDS011;43451;49.060;10.616;2024-01-06T00:24:56;12.40;;;7.82;;
57627;SDS011;43451;49.060;10.616;2024-01-06T00:27:21;14.77;;;8.43;;
57627;SDS011;43451;49.060;10.616;2024-01-06T00:29:47;14.63;;;8.02;;
57627;SDS011;43451;49.060;10.616;2024-01-06T00:32:12;14.68;;;8.40;;
57627;SDS011;43451;49.060;10.616;2024-01-06T00:34:38;14.18;;;7.85;;
57627;SDS011;43451;49.060;10.616;2024-01-06T00:37:03;13.00;;;7.75;;
57627;SDS011;43451;49.060;10.616;2024-01-06T00:39:29;11.30;;;6.85;;
57627;SDS011;43451;49.060;10.616;2024-01-06T00:41:55;12.18;;;7.00;;
57627;SDS011;43451;49.060;10.616;2024-01-06T00:44:20;11.25;;;7.47;;
57627;SDS011;43451;49.060;10.616;2024-01-06T00:46:45;12.40;;;7.03;;
57627;SDS011;43451;49.060;10.616;2024-01-06T00:49:11;11.57;;;7.30;;
57627;SDS011;43451;49.060;10.616;2024-01-06T00:51:37;10.45;;;7.28;;
57627;SDS011;43451;49.060;10.616;2024-01-06T00:54:02;11.52;;;7.07;;
57627;SDS011;43451;49.060;10.616;2024-01-06T00:56:28;11.60;;;7.25;;
57627;SDS011;43451;49.060;10.616;2024-01-06T00:58:54;11.80;;;7.55;;
57627;SDS011;43451;49.060;10.616;2024-01-06T01:01:19;11.57;;;7.25;;
57627;SDS011;43451;49.060;10.616;2024-01-06T01:03:45;10.27;;;7.05;;
57627;SDS011;43451;49.060;10.616;2024-01-06T01:06:11;13.98;;;7.70;;
57627;SDS011;43451;49.060;10.616;2024-01-06T01:08:36;13.93;;;7.60;;
57627;SDS011;43451;49.060;10.616;2024-01-06T01:11:02;11.32;;;7.45;;
57627;SDS011;43451;49.060;10.616;2024-01-06T01:13:27;10.88;;;6.88;;
57627;SDS011;43451;49.060;10.616;2024-01-06T01:15:53;11.18;;;7.20;;
57627;SDS011;43451;49.060;10.616;2024-01-06T01:18:18;12.55;;;7.22;;
57627;SDS011;43451;49.060;10.616;2024-01-06T01:20:44;12.57;;;7.85;;
57627;SDS011;43451;49.060;10.616;2024-01-06T01:23:09;12.25;;;8.20;;
57627;SDS011;43451;49.060;10.616;2024-01-06T01:25:35;10.45;;;7.72;;
57627;SDS011;43451;49.060;10.616;2024-01-06T01:28:00;11.35;;;7.50;;
57627;SDS011;43451;49.060;10.616;2024-01-06T01:30:26;13.32;;;7.85;;
57627;SDS011;43451;49.060;10.616;2024-01-06T01:32:52;12.27;;;7.65;;
57627;SDS011;43451;49.060;10.616;2024-01-06T01:35:18;11.07;;;7.10;;
57627;SDS011;43451;49.060;10.616;2024-01-06T01:37:43;11.00;;;7.35;;
57627;SDS011;43451;49.060;10.616;2024-01-06T01:40:09;11.63;;;7.40;;
57627;SDS011;43451;49.060;10.616;2024-01-06T01:42:35;10.23;;;7.07;;
57627;SDS011;43451;49.060;10.616;2024-01-06T01:45:00;11.38;;;6.82;;
57627;SDS011;43451;49.060;10.616;2024-01-06T01:47:26;12.13;;;7.00;;
57627;SDS011;43451;49.060;10.616;2024-01-06T01:49:52;11.50;;;7.43;;
57627;SDS011;43451;49.060;10.616;2024-01-06T01:52:20;11.18;;;6.90;;
57627;SDS011;43451;49.060;10.616;2024-01-06T01:54:45;11.65;;;6.32;;
57627;SDS011;43451;49.060;10.616;2024-01-06T01:57:12;12.13;;;6.88;;
57627;SDS011;43451;49.060;10.616;2024-01-06T01:59:39;12.37;;;6.90;;
57627;SDS011;43451;49.060;10.616;2024-01-06T02:02:05;10.18;;;7.13;;
57627;SDS011;43451;49.060;10.616;2024-01-06T02:04:31;13.20;;;6.93;;
57627;SDS011;43451;49.060;10.616;2024-01-06T02:06:57;11.25;;;6.63;;
57627;SDS011;43451;49.060;10.616;2024-01-06T02:09:22;12.45;;;6.90;;
57627;SDS011;43451;49.060;10.616;2024-01-06T02:11:52;12.73;;;7.15;;
57627;SDS011;43451;49.060;10.616;2024-01-06T02:14:18;9.73;;;6.97;;
57627;SDS011;43451;49.060;10.616;2024-01-06T02:16:43;11.32;;;6.95;;
57627;SDS011;43451;49.060;10.616;2024-01-06T02:19:09;9.23;;;6.70;;
57627;SDS011;43451;49.060;10.616;2024-01-06T02:21:36;11.18;;;6.80;;
57627;SDS011;43451;49.060;10.616;2024-01-06T02:24:07;9.52;;;6.68;;
57627;SDS011;43451;49.060;10.616;2024-01-06T02:26:33;9.70;;;7.10;;
57627;SDS011;43451;49.060;10.616;2024-01-06T02:28:58;12.65;;;7.18;;
57627;SDS011;43451;49.060;10.616;2024-01-06T02:31:23;9.88;;;6.40;;
57627;SDS011;43451;49.060;10.616;2024-01-06T02:33:49;9.25;;;6.43;;
57627;SDS011;43451;49.060;10.616;2024-01-06T02:36:14;9.60;;;6.90;;
57627;SDS011;43451;49.060;10.616;2024-01-06T02:38:40;10.77;;;6.95;;
57627;SDS011;43451;49.060;10.616;2024-01-06T02:41:05;10.52;;;7.28;;
57627;SDS011;43451;49.060;10.616;2024-01-06T02:43:30;13.25;;;7.68;;
57627;SDS011;43451;49.060;10.616;2024-01-06T02:45:56;15.38;;;7.85;;
57627;SDS011;43451;49.060;10.616;2024-01-06T02:48:21;15.70;;;7.75;;
57627;SDS011;43451;49.060;10.616;2024-01-06T02:50:47;11.45;;;7.68;;
57627;SDS011;43451;49.060;10.616;2024-01-06T02:53:12;10.98;;;7.35;;
57627;SDS011;43451;49.060;10.616;2024-01-06T02:55:38;8.15;;;6.35;;
57627;SDS011;43451;49.060;10.616;2024-01-06T02:58:04;10.65;;;7.18;;
57627;SDS011;43451;49.060;10.616;2024-01-06T03:00:30;11.50;;;7.40;;
57627;SDS011;43451;49.060;10.616;2024-01-06T03:02:55;13.43;;;7.40;;
57627;SDS011;43451;49.060;10.616;2024-01-06T03:05:21;11.00;;;6.63;;
57627;SDS011;43451;49.060;10.616;2024-01-06T03:07:46;9.52;;;6.38;;
57627;SDS011;43451;49.060;10.616;2024-01-06T03:10:12;10.52;;;6.53;;
57627;SDS011;43451;49.060;10.616;2024-01-06T03:15:05;9.43;;;6.75;;
57627;SDS011;43451;49.060;10.616;2024-01-06T03:17:31;9.45;;;6.53;;
57627;SDS011;43451;49.060;10.616;2024-01-06T03:19:57;9.57;;;7.20;;
57627;SDS011;43451;49.060;10.616;2024-01-06T03:22:22;10.10;;;6.88;;
57627;SDS011;43451;49.060;10.616;2024-01-06T03:24:48;11.15;;;7.35;;
57627;SDS011;43451;49.060;10.616;2024-01-06T03:27:14;9.32;;;6.72;;
57627;SDS011;43451;49.060;10.616;2024-01-06T03:29:39;11.20;;;7.07;;
57627;SDS011;43451;49.060;10.616;2024-01-06T03:32:05;10.57;;;6.75;;
57627;SDS011;43451;49.060;10.616;2024-01-06T03:34:31;11.70;;;6.85;;
57627;SDS011;43451;49.060;10.616;2024-01-06T03:36:56;12.30;;;6.90;;
57627;SDS011;43451;49.060;10.616;2024-01-06T03:39:22;9.07;;;6.55;;
57627;SDS011;43451;49.060;10.616;2024-01-06T03:41:48;10.55;;;6.78;;
57627;SDS011;43451;49.060;10.616;2024-01-06T03:44:14;8.73;;;6.75;;
57627;SDS011;43451;49.060;10.616;2024-01-06T03:46:39;12.80;;;7.32;;
57627;SDS011;43451;49.060;10.616;2024-01-06T03:49:05;13.23;;;6.72;;
57627;SDS011;43451;49.060;10.616;2024-01-06T03:51:30;10.68;;;6.63;;
57627;SDS011;43451;49.060;10.616;2024-01-06T03:53:56;11.18;;;6.68;;
57627;SDS011;43451;49.060;10.616;2024-01-06T03:56:21;11.98;;;6.55;;
57627;SDS011;43451;49.060;10.616;2024-01-06T03:58:47;10.25;;;6.95;;
57627;SDS011;43451;49.060;10.616;2024-01-06T04:01:13;12.25;;;6.40;;
57627;SDS011;43451;49.060;10.616;2024-01-06T04:03:38;10.57;;;6.43;;
57627;SDS011;43451;49.060;10.616;2024-01-06T04:06:07;9.98;;;6.03;;
57627;SDS011;43451;49.060;10.616;2024-01-06T04:08:32;9.45;;;6.00;;
57627;SDS011;43451;49.060;10.616;2024-01-06T04:10:58;9.40;;;5.80;;
57627;SDS011;43451;49.060;10.616;2024-01-06T04:13:23;10.10;;;6.30;;
57627;SDS011;43451;49.060;10.616;2024-01-06T04:15:50;10.93;;;6.13;;
57627;SDS011;43451;49.060;10.616;2024-01-06T04:18:16;8.07;;;5.80;;
57627;SDS011;43451;49.060;10.616;2024-01-06T04:20:41;12.48;;;6.13;;
57627;SDS011;43451;49.060;10.616;2024-01-06T04:23:07;10.20;;;6.20;;
57627;SDS011;43451;49.060;10.616;2024-01-06T04:25:32;11.02;;;6.68;;
57627;SDS011;43451;49.060;10.616;2024-01-06T04:27:58;13.05;;;6.50;;
57627;SDS011;43451;49.060;10.616;2024-01-06T04:30:23;10.57;;;6.10;;
57627;SDS011;43451;49.060;10.616;2024-01-06T04:32:51;10.90;;;6.27;;
57627;SDS011;43451;49.060;10.616;2024-01-06T04:35:17;11.27;;;6.15;;
57627;SDS011;43451;49.060;10.616;2024-01-06T04:37:43;10.18;;;6.32;;
57627;SDS011;43451;49.060;10.616;2024-01-06T04:40:09;9.43;;;5.95;;
57627;SDS011;43451;49.060;10.616;2024-01-06T04:42:35;11.48;;;6.25;;
57627;SDS011;43451;49.060;10.616;2024-01-06T04:45:00;10.05;;;5.93;;
57627;SDS011;43451;49.060;10.616;2024-01-06T04:47:26;10.88;;;6.00;;
57627;SDS011;43451;49.060;10.616;2024-01-06T04:49:53;10.70;;;6.28;;
57627;SDS011;43451;49.060;10.616;2024-01-06T04:52:18;10.52;;;6.15;;
57627;SDS011;43451;49.060;10.616;2024-01-06T04:54:44;10.98;;;6.10;;
57627;SDS011;43451;49.060;10.616;2024-01-06T04:57:09;12.07;;;6.65;;
57627;SDS011;43451;49.060;10.616;2024-01-06T04:59:35;10.52;;;5.70;;
57627;SDS011;43451;49.060;10.616;2024-01-06T05:02:00;11.90;;;6.32;;
57627;SDS011;43451;49.060;10.616;2024-01-06T05:04:26;11.10;;;5.90;;
57627;SDS011;43451;49.060;10.616;2024-01-06T05:06:52;9.35;;;6.00;;
57627;SDS011;43451;49.060;10.616;2024-01-06T05:09:18;8.63;;;5.85;;
57627;SDS011;43451;49.060;10.616;2024-01-06T05:11:43;10.13;;;6.00;;
57627;SDS011;43451;49.060;10.616;2024-01-06T05:14:09;10.60;;;5.93;;
57627;SDS011;43451;49.060;10.616;2024-01-06T05:16:35;10.25;;;5.90;;
57627;SDS011;43451;49.060;10.616;2024-01-06T05:19:01;7.65;;;5.57;;
57627;SDS011;43451;49.060;10.616;2024-01-06T05:21:26;12.52;;;6.28;;
57627;SDS011;43451;49.060;10.616;2024-01-06T05:23:52;10.38;;;6.03;;
57627;SDS011;43451;49.060;10.616;2024-01-06T05:26:17;8.88;;;5.95;;
57627;SDS011;43451;49.060;10.616;2024-01-06T05:28:43;10.68;;;5.97;;
57627;SDS011;43451;49.060;10.616;2024-01-06T05:31:08;10.80;;;6.15;;
57627;SDS011;43451;49.060;10.616;2024-01-06T05:33:34;8.25;;;6.00;;
57627;SDS011;43451;49.060;10.616;2024-01-06T05:35:59;8.57;;;5.57;;
57627;SDS011;43451;49.060;10.616;2024-01-06T05:38:24;10.50;;;5.75;;
57627;SDS011;43451;49.060;10.616;2024-01-06T05:40:50;9.48;;;5.45;;
57627;SDS011;43451;49.060;10.616;2024-01-06T05:43:15;9.82;;;5.88;;
57627;SDS011;43451;49.060;10.616;2024-01-06T05:45:41;9.43;;;5.88;;
57627;SDS011;43451;49.060;10.616;2024-01-06T05:48:10;7.43;;;5.10;;
57627;SDS011;43451;49.060;10.616;2024-01-06T05:50:37;9.43;;;5.30;;
57627;SDS011;43451;49.060;10.616;2024-01-06T05:53:04;7.50;;;5.47;;
57627;SDS011;43451;49.060;10.616;2024-01-06T05:55:29;12.15;;;5.00;;
57627;SDS011;43451;49.060;10.616;2024-01-06T05:57:55;9.63;;;5.07;;
57627;SDS011;43451;49.060;10.616;2024-01-06T06:00:21;9.70;;;4.43;;
57627;SDS011;43451;49.060;10.616;2024-01-06T06:02:52;12.10;;;4.43;;
57627;SDS011;43451;49.060;10.616;2024-01-06T06:05:23;8.63;;;3.80;;
57627;SDS011;43451;49.060;10.616;2024-01-06T06:07:49;7.40;;;4.05;;
57627;SDS011;43451;49.060;10.616;2024-01-06T06:10:14;6.00;;;3.85;;
57627;SDS011;43451;49.060;10.616;2024-01-06T06:12:41;7.05;;;3.72;;
57627;SDS011;43451;49.060;10.616;2024-01-06T06:15:06;5.55;;;3.20;;
57627;SDS011;43451;49.060;10.616;2024-01-06T06:17:32;7.03;;;3.35;;
57627;SDS011;43451;49.060;10.616;2024-01-06T06:19:58;5.68;;;3.72;;
57627;SDS011;43451;49.060;10.616;2024-01-06T06:22:24;6.05;;;3.30;;
57627;SDS011;43451;49.060;10.616;2024-01-06T06:24:57;7.53;;;3.17;;
57627;SDS011;43451;49.060;10.616;2024-01-06T06:27:24;6.85;;;3.22;;
57627;SDS011;43451;49.060;10.616;2024-01-06T06:29:49;6.10;;;3.25;;
57627;SDS011;43451;49.060;10.616;2024-01-06T06:32:15;6.93;;;2.83;;
57627;SDS011;43451;49.060;10.616;2024-01-06T06:34:40;7.13;;;2.90;;
57627;SDS011;43451;49.060;10.616;2024-01-06T06:37:07;5.70;;;2.80;;
57627;SDS011;43451;49.060;10.616;2024-01-06T06:39:33;6.78;;;3.00;;
57627;SDS011;43451;49.060;10.616;2024-01-06T06:41:59;5.38;;;3.00;;
57627;SDS011;43451;49.060;10.616;2024-01-06T06:44:25;4.95;;;2.78;;
57627;SDS011;43451;49.060;10.616;2024-01-06T06:46:50;6.38;;;2.50;;
57627;SDS011;43451;49.060;10.616;2024-01-06T06:49:16;4.80;;;2.78;;
57627;SDS011;43451;49.060;10.616;2024-01-06T06:51:41;4.60;;;2.60;;
57627;SDS011;43451;49.060;10.616;2024-01-06T06:54:12;7.95;;;2.95;;
57627;SDS011;43451;49.060;10.616;2024-01-06T06:56:38;4.75;;;2.60;;
57627;SDS011;43451;49.060;10.616;2024-01-06T06:59:03;6.90;;;2.85;;
57627;SDS011;43451;49.060;10.616;2024-01-06T07:01:30;7.40;;;3.00;;
57627;SDS011;43451;49.060;10.616;2024-01-06T07:03:56;6.20;;;3.03;;
57627;SDS011;43451;49.060;10.616;2024-01-06T07:06:21;5.78;;;2.95;;
57627;SDS011;43451;49.060;10.616;2024-01-06T07:08:47;5.78;;;3.17;;
57627;SDS011;43451;49.060;10.616;2024-01-06T07:11:12;7.40;;;2.85;;
57627;SDS011;43451;49.060;10.616;2024-01-06T07:13:40;9.40;;;3.70;;
57627;SDS011;43451;49.060;10.616;2024-01-06T07:16:05;7.20;;;4.53;;
57627;SDS011;43451;49.060;10.616;2024-01-06T07:18:32;6.38;;;4.25;;
57627;SDS011;43451;49.060;10.616;2024-01-06T07:20:58;10.25;;;4.80;;
57627;SDS011;43451;49.060;10.616;2024-01-06T07:23:23;8.40;;;4.80;;
57627;SDS011;43451;49.060;10.616;2024-01-06T07:25:49;5.90;;;4.18;;
57627;SDS011;43451;49.060;10.616;2024-01-06T07:28:14;6.13;;;4.45;;
57627;SDS011;43451;49.060;10.616;2024-01-06T07:30:40;7.95;;;4.97;;
57627;SDS011;43451;49.060;10.616;2024-01-06T07:33:06;11.52;;;6.30;;
57627;SDS011;43451;49.060;10.616;2024-01-06T07:35:31;10.43;;;5.55;;
57627;SDS011;43451;49.060;10.616;2024-01-06T07:37:57;10.98;;;5.78;;
57627;SDS011;43451;49.060;10.616;2024-01-06T07:40:22;17.63;;;4.97;;
57627;SDS011;43451;49.060;10.616;2024-01-06T07:42:50;9.38;;;4.97;;
57627;SDS011;43451;49.060;10.616;2024-01-06T07:45:16;11.75;;;4.80;;
57627;SDS011;43451;49.060;10.616;2024-01-06T07:47:42;12.85;;;5.45;;
57627;SDS011;43451;49.060;10.616;2024-01-06T07:50:08;10.88;;;5.40;;
57627;SDS011;43451;49.060;10.616;2024-01-06T07:52:34;11.27;;;5.65;;
57627;SDS011;43451;49.060;10.616;2024-01-06T07:54:59;12.60;;;5.50;;
57627;SDS011;43451;49.060;10.616;2024-01-06T07:57:25;11.20;;;5.55;;
57627;SDS011;43451;49.060;10.616;2024-01-06T07:59:51;13.18;;;5.75;;
57627;SDS011;43451;49.060;10.616;2024-01-06T08:02:16;11.23;;;5.57;;
57627;SDS011;43451;49.060;10.616;2024-01-06T08:04:42;12.15;;;5.88;;
57627;SDS011;43451;49.060;10.616;2024-01-06T08:07:08;13.25;;;5.55;;
57627;SDS011;43451;49.060;10.616;2024-01-06T08:09:33;9.95;;;5.47;;
57627;SDS011;43451;49.060;10.616;2024-01-06T08:11:59;14.63;;;6.40;;
57627;SDS011;43451;49.060;10.616;2024-01-06T08:14:25;11.40;;;5.63;;
57627;SDS011;43451;49.060;10.616;2024-01-06T08:16:50;12.70;;;6.50;;
57627;SDS011;43451;49.060;10.616;2024-01-06T08:19:16;14.02;;;6.07;;
57627;SDS011;43451;49.060;10.616;2024-01-06T08:21:42;13.75;;;6.57;;
57627;SDS011;43451;49.060;10.616;2024-01-06T08:24:07;17.05;;;7.18;;
57627;SDS011;43451;49.060;10.616;2024-01-06T08:26:33;17.80;;;6.70;;
57627;SDS011;43451;49.060;10.616;2024-01-06T08:28:58;22.98;;;7.15;;
57627;SDS011;43451;49.060;10.616;2024-01-06T08:31:24;14.15;;;6.35;;
57627;SDS011;43451;49.060;10.616;2024-01-06T08:33:50;12.15;;;6.10;;
57627;SDS011;43451;49.060;10.616;2024-01-06T08:36:15;15.00;;;6.00;;
57627;SDS011;43451;49.060;10.616;2024-01-06T08:38:41;14.70;;;5.68;;
57627;SDS011;43451;49.060;10.616;2024-01-06T08:41:07;17.10;;;7.72;;
57627;SDS011;43451;49.060;10.616;2024-01-06T08:43:32;28.98;;;13.90;;
57627;SDS011;43451;49.060;10.616;2024-01-06T08:45:58;14.77;;;7.82;;
57627;SDS011;43451;49.060;10.616;2024-01-06T08:48:24;14.88;;;7.95;;
57627;SDS011;43451;49.060;10.616;2024-01-06T08:50:50;13.88;;;7.07;;
57627;SDS011;43451;49.060;10.616;2024-01-06T08:53:16;23.73;;;10.43;;
57627;SDS011;43451;49.060;10.616;2024-01-06T08:55:41;21.08;;;10.18;;
57627;SDS011;43451;49.060;10.616;2024-01-06T08:58:07;16.77;;;8.57;;
57627;SDS011;43451;49.060;10.616;2024-01-06T09:00:33;17.30;;;9.45;;
57627;SDS011;43451;49.060;10.616;2024-01-06T09:02:58;19.90;;;9.38;;
57627;SDS011;43451;49.060;10.616;2024-01-06T09:05:25;13.93;;;7.35;;
57627;SDS011;43451;49.060;10.616;2024-01-06T09:07:50;10.52;;;5.88;;
57627;SDS011;43451;49.060;10.616;2024-01-06T09:10:16;12.25;;;5.10;;
57627;SDS011;43451;49.060;10.616;2024-01-06T09:12:42;10.80;;;5.70;;
57627;SDS011;43451;49.060;10.616;2024-01-06T09:15:08;12.65;;;5.65;;
57627;SDS011;43451;49.060;10.616;2024-01-06T09:17:33;6.88;;;4.50;;
57627;SDS011;43451;49.060;10.616;2024-01-06T09:19:59;9.68;;;5.50;;
57627;SDS011;43451;49.060;10.616;2024-01-06T09:22:26;11.85;;;5.05;;
57627;SDS011;43451;49.060;10.616;2024-01-06T09:24:51;9.93;;;6.00;;
57627;SDS011;43451;49.060;10.616;2024-01-06T09:27:17;10.63;;;6.38;;
57627;SDS011;43451;49.060;10.616;2024-01-06T09:29:43;12.82;;;5.60;;
57627;SDS011;43451;49.060;10.616;2024-01-06T09:32:09;13.70;;;4.65;;
57627;SDS011;43451;49.060;10.616;2024-01-06T09:34:34;9.38;;;4.70;;
57627;SDS011;43451;49.060;10.616;2024-01-06T09:37:00;9.95;;;5.10;;
57627;SDS011;43451;49.060;10.616;2024-01-06T09:39:25;13.65;;;4.93;;
57627;SDS011;43451;49.060;10.616;2024-01-06T09:41:51;22.45;;;4.90;;
57627;SDS011;43451;49.060;10.616;2024-01-06T09:44:16;8.48;;;4.22;;
57627;SDS011;43451;49.060;10.616;2024-01-06T09:46:43;11.65;;;4.55;;
57627;SDS011;43451;49.060;10.616;2024-01-06T09:49:09;9.73;;;5.35;;
57627;SDS011;43451;49.060;10.616;2024-01-06T09:51:36;8.50;;;4.70;;
57627;SDS011;43451;49.060;10.616;2024-01-06T09:54:04;8.90;;;4.70;;
57627;SDS011;43451;49.060;10.616;2024-01-06T09:56:34;8.10;;;4.63;;
57627;SDS011;43451;49.060;10.616;2024-01-06T09:58:59;7.38;;;4.70;;
57627;SDS011;43451;49.060;10.616;2024-01-06T10:01:25;7.57;;;4.90;;
57627;SDS011;43451;49.060;10.616;2024-01-06T10:03:51;10.43;;;4.78;;
57627;SDS011;43451;49.060;10.616;2024-01-06T10:06:17;7.05;;;4.65;;
57627;SDS011;43451;49.060;10.616;2024-01-06T10:08:43;8.50;;;5.00;;
57627;SDS011;43451;49.060;10.616;2024-01-06T10:11:09;7.50;;;4.60;;
57627;SDS011;43451;49.060;10.616;2024-01-06T10:13:35;9.15;;;4.60;;
57627;SDS011;43451;49.060;10.616;2024-01-06T10:16:03;9.80;;;3.90;;
57627;SDS011;43451;49.060;10.616;2024-01-06T10:18:29;7.28;;;4.00;;
57627;SDS011;43451;49.060;10.616;2024-01-06T10:20:56;7.32;;;4.07;;
57627;SDS011;43451;49.060;10.616;2024-01-06T10:23:23;9.48;;;4.20;;
57627;SDS011;43451;49.060;10.616;2024-01-06T10:25:58;6.93;;;4.13;;
57627;SDS011;43451;49.060;10.616;2024-01-06T10:28:24;8.73;;;3.88;;
57627;SDS011;43451;49.060;10.616;2024-01-06T10:30:53;7.55;;;4.00;;
57627;SDS011;43451;49.060;10.616;2024-01-06T10:33:20;6.05;;;3.42;;
57627;SDS011;43451;49.060;10.616;2024-01-06T10:35:46;6.05;;;3.70;;
57627;SDS011;43451;49.060;10.616;2024-01-06T10:38:12;11.25;;;3.85;;
57627;SDS011;43451;49.060;10.616;2024-01-06T10:40:38;7.93;;;3.47;;
57627;SDS011;43451;49.060;10.616;2024-01-06T10:43:04;5.25;;;3.50;;
57627;SDS011;43451;49.060;10.616;2024-01-06T10:45:31;6.43;;;3.67;;
57627;SDS011;43451;49.060;10.616;2024-01-06T10:47:56;10.27;;;3.75;;
57627;SDS011;43451;49.060;10.616;2024-01-06T10:50:23;7.47;;;3.80;;
57627;SDS011;43451;49.060;10.616;2024-01-06T10:52:48;4.75;;;3.33;;
57627;SDS011;43451;49.060;10.616;2024-01-06T10:55:15;6.57;;;3.33;;
57627;SDS011;43451;49.060;10.616;2024-01-06T10:57:45;5.65;;;3.15;;
57627;SDS011;43451;49.060;10.616;2024-01-06T11:00:12;5.72;;;3.20;;
57627;SDS011;43451;49.060;10.616;2024-01-06T11:02:38;5.32;;;3.38;;
57627;SDS011;43451;49.060;10.616;2024-01-06T11:05:04;7.63;;;3.13;;
57627;SDS011;43451;49.060;10.616;2024-01-06T11:07:35;5.53;;;3.33;;
57627;SDS011;43451;49.060;10.616;2024-01-06T11:10:10;5.70;;;3.10;;
57627;SDS011;43451;49.060;10.616;2024-01-06T11:12:44;5.55;;;3.13;;
57627;SDS011;43451;49.060;10.616;2024-01-06T11:15:10;5.70;;;3.40;;
57627;SDS011;43451;49.060;10.616;2024-01-06T11:18:08;5.50;;;3.40;;
57627;SDS011;43451;49.060;10.616;2024-01-06T11:20:34;5.65;;;3.30;;
57627;SDS011;43451;49.060;10.616;2024-01-06T11:23:19;4.57;;;3.05;;
57627;SDS011;43451;49.060;10.616;2024-01-06T11:25:48;4.90;;;3.40;;
57627;SDS011;43451;49.060;10.616;2024-01-06T11:28:13;7.18;;;3.40;;
57627;SDS011;43451;49.060;10.616;2024-01-06T11:30:41;5.03;;;3.28;;
57627;SDS011;43451;49.060;10.616;2024-01-06T11:33:08;7.15;;;3.75;;
57627;SDS011;43451;49.060;10.616;2024-01-06T11:35:36;6.13;;;3.72;;
57627;SDS011;43451;49.060;10.616;2024-01-06T11:38:02;5.93;;;3.92;;
57627;SDS011;43451;49.060;10.616;2024-01-06T11:40:33;5.57;;;3.28;;
57627;SDS011;43451;49.060;10.616;2024-01-06T11:43:04;5.13;;;3.20;;
57627;SDS011;43451;49.060;10.616;2024-01-06T11:45:32;4.93;;;2.92;;
57627;SDS011;43451;49.060;10.616;2024-01-06T11:48:02;5.30;;;2.80;;
57627;SDS011;43451;49.060;10.616;2024-01-06T11:50:33;3.50;;;2.40;;
57627;SDS011;43451;49.060;10.616;2024-01-06T11:53:00;2.13;;;1.67;;
57627;SDS011;43451;49.060;10.616;2024-01-06T11:55:26;1.60;;;1.42;;
57627;SDS011;43451;49.060;10.616;2024-01-06T11:57:58;2.22;;;1.70;;
57627;SDS011;43451;49.060;10.616;2024-01-06T12:00:31;3.55;;;2.17;;
57627;SDS011;43451;49.060;10.616;2024-01-06T12:02:58;4.25;;;1.90;;
57627;SDS011;43451;49.060;10.616;2024-01-06T12:05:25;3.40;;;1.40;;
57627;SDS011;43451;49.060;10.616;2024-01-06T12:07:55;2.13;;;1.70;;
57627;SDS011;43451;49.060;10.616;2024-01-06T12:10:27;3.10;;;1.67;;
57627;SDS011;43451;49.060;10.616;2024-01-06T12:15:23;2.08;;;1.40;;
57627;SDS011;43451;49.060;10.616;2024-01-06T12:17:49;2.83;;;1.67;;
57627;SDS011;43451;49.060;10.616;2024-01-06T12:20:15;2.08;;;1.73;;
57627;SDS011;43451;49.060;10.616;2024-01-06T12:22:41;3.45;;;2.10;;
57627;SDS011;43451;49.060;10.616;2024-01-06T12:25:08;4.03;;;2.20;;
57627;SDS011;43451;49.060;10.616;2024-01-06T12:27:34;2.87;;;2.30;;
57627;SDS011;43451;49.060;10.616;2024-01-06T12:30:00;3.35;;;2.33;;
57627;SDS011;43451;49.060;10.616;2024-01-06T12:32:26;3.33;;;2.60;;
57627;SDS011;43451;49.060;10.616;2024-01-06T12:34:51;3.00;;;2.70;;
57627;SDS011;43451;49.060;10.616;2024-01-06T12:37:17;2.47;;;1.85;;
57627;SDS011;43451;49.060;10.616;2024-01-06T12:39:42;3.92;;;2.60;;
57627;SDS011;43451;49.060;10.616;2024-01-06T12:42:10;2.65;;;2.28;;
57627;SDS011;43451;49.060;10.616;2024-01-06T12:44:36;4.00;;;2.95;;
57627;SDS011;43451;49.060;10.616;2024-01-06T12:47:04;4.20;;;3.00;;
57627;SDS011;43451;49.060;10.616;2024-01-06T12:49:30;3.17;;;2.63;;
57627;SDS011;43451;49.060;10.616;2024-01-06T12:51:55;3.38;;;2.60;;
57627;SDS011;43451;49.060;10.616;2024-01-06T12:54:21;3.25;;;2.78;;
57627;SDS011;43451;49.060;10.616;2024-01-06T12:56:46;4.07;;;2.97;;
57627;SDS011;43451;49.060;10.616;2024-01-06T12:59:12;4.82;;;2.75;;
57627;SDS011;43451;49.060;10.616;2024-01-06T13:01:38;4.30;;;2.75;;
57627;SDS011;43451;49.060;10.616;2024-01-06T13:04:04;4.10;;;3.03;;
57627;SDS011;43451;49.060;10.616;2024-01-06T13:06:30;4.20;;;3.00;;
57627;SDS011;43451;49.060;10.616;2024-01-06T13:08:55;3.88;;;2.90;;
57627;SDS011;43451;49.060;10.616;2024-01-06T13:11:21;4.47;;;3.10;;
57627;SDS011;43451;49.060;10.616;2024-01-06T13:13:49;5.22;;;3.15;;
57627;SDS011;43451;49.060;10.616;2024-01-06T13:16:15;3.90;;;2.88;;
57627;SDS011;43451;49.060;10.616;2024-01-06T13:18:40;3.45;;;2.85;;
57627;SDS011;43451;49.060;10.616;2024-01-06T13:21:06;4.55;;;2.65;;
57627;SDS011;43451;49.060;10.616;2024-01-06T13:23:31;4.45;;;3.00;;
57627;SDS011;43451;49.060;10.616;2024-01-06T13:25:57;7.10;;;3.42;;
57627;SDS011;43451;49.060;10.616;2024-01-06T13:28:23;4.38;;;3.17;;
57627;SDS011;43451;49.060;10.616;2024-01-06T13:30:49;4.85;;;3.28;;
57627;SDS011;43451;49.060;10.616;2024-01-06T13:33:15;6.13;;;3.55;;
57627;SDS011;43451;49.060;10.616;2024-01-06T13:35:40;5.03;;;3.42;;
57627;SDS011;43451;49.060;10.616;2024-01-06T13:38:06;7.53;;;3.78;;
57627;SDS011;43451;49.060;10.616;2024-01-06T13:40:31;4.95;;;3.42;;
57627;SDS011;43451;49.060;10.616;2024-01-06T13:42:57;11.95;;;7.55;;
57627;SDS011;43451;49.060;10.616;2024-01-06T13:45:23;5.45;;;3.85;;
57627;SDS011;43451;49.060;10.616;2024-01-06T13:47:49;4.50;;;3.22;;
57627;SDS011;43451;49.060;10.616;2024-01-06T13:50:18;4.05;;;3.00;;
57627;SDS011;43451;49.060;10.616;2024-01-06T13:52:44;3.80;;;2.65;;
57627;SDS011;43451;49.060;10.616;2024-01-06T13:55:13;3.70;;;2.58;;
57627;SDS011;43451;49.060;10.616;2024-01-06T13:57:39;4.15;;;2.63;;
57627;SDS011;43451;49.060;10.616;2024-01-06T14:00:07;3.90;;;2.80;;
57627;SDS011;43451;49.060;10.616;2024-01-06T14:02:33;6.27;;;2.80;;
57627;SDS011;43451;49.060;10.616;2024-01-06T14:04:59;5.15;;;2.80;;
57627;SDS011;43451;49.060;10.616;2024-01-06T14:07:25;4.72;;;2.80;;
57627;SDS011;43451;49.060;10.616;2024-01-06T14:09:51;5.57;;;3.60;;
57627;SDS011;43451;49.060;10.616;2024-01-06T14:12:17;6.63;;;3.53;;
57627;SDS011;43451;49.060;10.616;2024-01-06T14:14:44;9.32;;;4.90;;
57627;SDS011;43451;49.060;10.616;2024-01-06T14:17:10;12.75;;;5.43;;
57627;SDS011;43451;49.060;10.616;2024-01-06T14:19:36;10.85;;;4.20;;
57627;SDS011;43451;49.060;10.616;2024-01-06T14:22:01;7.93;;;4.18;;
57627;SDS011;43451;49.060;10.616;2024-01-06T14:24:30;4.97;;;3.90;;
57627;SDS011;43451;49.060;10.616;2024-01-06T14:26:56;5.57;;;3.33;;
57627;SDS011;43451;49.060;10.616;2024-01-06T14:29:22;6.32;;;4.28;;